Weather History for KCWV - December, 2012

Change the Weather History Date:

Wednesday, December 19, 2012

  Actual Average (KSAV) Record (KSAV)
Temperature  
Mean Temperature 52 °F 51 °F  
Max Temperature 71 °F 62 °F 78 °F (1967)
Min Temperature 32 °F 40 °F 17 °F (1953)
Degree Days  
Heating Degree Days 14 14  
Month to date heating degree days 239  
Since 1 July heating degree days 506  
Cooling Degree Days 0 0  
Month to date cooling degree days 3  
Year to date cooling degree days 2452  
Growing Degree Days 2 (Base 50)    
Moisture  
Dew Point 38 °F    
Average Humidity 77    
Maximum Humidity 100    
Minimum Humidity 28    
Precipitation  
Precipitation 0.00 in 0.10 in 1.59 in (1990)
Month to date precipitation 1.74  
Year to date precipitation 46.75  
Sea Level Pressure  
Sea Level Pressure 30.09 in    
Wind  
Wind Speed 1 mph (West)    
Max Wind Speed 7 mph    
Max Gust Speed -    
Visibility 10 miles    
Events      
T = Trace of Precipitation, MM = Missing Value Source: NWS Daily Summary

Daily Weather History Graph

Daily Weather History Graph

Search for Another Location

Airport or City:

Trip Planner

Search our weather history database for the weather conditions in past years. The results will help you decide how hot, cold, wet, or windy it might be!

Date:

Astronomy

Dec. 19, 2012 Rise Set
Actual Time 7:23 AM EST 5:26 PM EST
Civil Twilight 6:56 AM EST 5:53 PM EST
Nautical Twilight 6:25 AM EST 6:23 PM EST
Astronomical Twilight 5:55 AM EST 6:53 PM EST
Moon 11:54 AM EST (12/19) No Moon Set
Length of Visible Light 10h 56m
Length of Day
10h 02m
Waxing Crescent, 45% of the Moon is Illuminated
Dec 19
Waxing Crescent
Dec 20
First Quarter
Dec 28
Full
Jan 4
Last Quarter
Jan 11
New

Hourly Weather History & Observations

Time (EST) Temp. Dew Point Humidity Pressure Visibility Wind Dir Wind Speed Gust Speed Precip Events Conditions
12:15 AM 37.4 °F 37.4 °F 100% 30.05 in 10.0 mi Calm Calm - N/A   Clear
12:35 AM 37.4 °F 37.4 °F 100% 30.05 in 10.0 mi Calm Calm - N/A   Clear
12:55 AM 35.6 °F 35.6 °F 100% 30.05 in 10.0 mi Calm Calm - N/A   Clear
1:15 AM 35.6 °F 35.6 °F 100% 30.05 in 10.0 mi Calm Calm - N/A   Clear
1:35 AM 35.6 °F 35.6 °F 100% 30.05 in 10.0 mi Calm Calm - N/A   Clear
1:55 AM 35.6 °F 35.6 °F 100% 30.05 in 10.0 mi Calm Calm - N/A   Clear
2:15 AM 35.6 °F 35.6 °F 100% 30.05 in 10.0 mi Calm Calm - N/A   Clear
2:35 AM 33.8 °F 33.8 °F 100% 30.06 in 10.0 mi Calm Calm - N/A   Clear
2:55 AM 33.8 °F 33.8 °F 100% 30.06 in 10.0 mi Calm Calm - N/A   Clear
3:15 AM 33.8 °F 33.8 °F 100% 30.06 in 10.0 mi Calm Calm - N/A   Clear
3:35 AM 33.8 °F 33.8 °F 100% 30.06 in 10.0 mi Calm Calm - N/A   Clear
3:55 AM 33.8 °F 33.8 °F 100% 30.06 in 10.0 mi Calm Calm - N/A   Clear
4:15 AM 33.8 °F 33.8 °F 100% 30.06 in 10.0 mi Calm Calm - N/A   Clear
4:35 AM 33.8 °F 33.8 °F 100% 30.05 in 10.0 mi Calm Calm - N/A   Clear
4:55 AM 33.8 °F 33.8 °F 100% 30.06 in 10.0 mi Calm Calm - N/A   Clear
5:15 AM 32.0 °F 32.0 °F 100% 30.06 in 10.0 mi Calm Calm - N/A   Clear
5:35 AM 32.0 °F 32.0 °F 100% 30.07 in 10.0 mi Calm Calm - N/A   Clear
5:55 AM 32.0 °F 32.0 °F 100% 30.08 in 10.0 mi Calm Calm - N/A   Clear
6:15 AM 32.0 °F 32.0 °F 100% 30.09 in 10.0 mi Calm Calm - N/A   Clear
6:35 AM 32.0 °F 32.0 °F 100% 30.09 in 10.0 mi Calm Calm - N/A   Clear
6:55 AM 32.0 °F 32.0 °F 100% 30.09 in 10.0 mi Calm Calm - N/A   Clear
7:15 AM 32.0 °F 32.0 °F 100% 30.10 in 10.0 mi Calm Calm - N/A   Clear
7:35 AM 32.0 °F 32.0 °F 100% 30.10 in 10.0 mi Calm Calm - N/A   Clear
7:55 AM 32.0 °F 32.0 °F 100% 30.12 in 10.0 mi Calm Calm - N/A   Clear
8:15 AM 33.8 °F 33.8 °F 100% 30.12 in 10.0 mi Calm Calm - N/A   Clear
8:35 AM 35.6 °F 35.6 °F 100% 30.13 in 10.0 mi Calm Calm - N/A   Clear
8:55 AM 39.2 °F 39.2 °F 100% 30.13 in 10.0 mi Calm Calm - N/A   Clear
9:15 AM 44.6 °F 44.6 °F 100% 30.13 in 10.0 mi Calm Calm - N/A   Clear
9:35 AM 50.0 °F 44.6 °F 82% 30.14 in 10.0 mi Calm Calm - N/A   Clear
9:55 AM 55.4 °F 44.6 °F 67% 30.14 in 10.0 mi WNW 3.5 mph - N/A   Clear
10:15 AM 59.0 °F 42.8 °F 55% 30.15 in 10.0 mi WNW 5.8 mph - N/A   Clear
10:35 AM 60.8 °F 42.8 °F 52% 30.15 in 10.0 mi WSW 3.5 mph - N/A   Clear
10:55 AM 62.6 °F 42.8 °F 48% 30.14 in 10.0 mi Calm Calm - N/A   Clear
11:15 AM 64.4 °F 41.0 °F 42% 30.14 in 10.0 mi NNW 6.9 mph - N/A   Clear
11:35 AM 64.4 °F 41.0 °F 42% 30.13 in 10.0 mi NW 4.6 mph - N/A   Clear
11:55 AM 68.0 °F 41.0 °F 37% 30.13 in 10.0 mi WNW 4.6 mph - N/A   Clear
12:15 PM 68.0 °F 41.0 °F 37% 30.12 in 10.0 mi West 3.5 mph - N/A   Clear
12:35 PM 69.8 °F 39.2 °F 33% 30.10 in 10.0 mi West 3.5 mph - N/A   Clear
12:55 PM 69.8 °F 37.4 °F 31% 30.10 in 10.0 mi West 6.9 mph - N/A   Clear
1:15 PM 69.8 °F 35.6 °F 28% 30.10 in 10.0 mi West 5.8 mph - N/A   Clear
1:35 PM 71.6 °F 37.4 °F 29% 30.09 in 10.0 mi WNW 4.6 mph - N/A   Clear
1:55 PM 71.6 °F 37.4 °F 29% 30.09 in 10.0 mi SW 5.8 mph - N/A   Clear
2:15 PM 71.6 °F 37.4 °F 29% 30.08 in 10.0 mi West 3.5 mph - N/A   Clear
2:35 PM 71.6 °F 37.4 °F 29% 30.08 in 10.0 mi West 3.5 mph - N/A   Clear
2:55 PM 71.6 °F 37.4 °F 29% 30.08 in 10.0 mi Calm Calm - N/A   Clear
3:15 PM 71.6 °F 37.4 °F 29% 30.07 in 10.0 mi Calm Calm - N/A   Clear
3:35 PM 71.6 °F 37.4 °F 29% 30.07 in 10.0 mi Calm Calm - N/A   Clear
3:55 PM 71.6 °F 37.4 °F 29% 30.07 in 10.0 mi SSW 3.5 mph - N/A   Clear
4:15 PM 71.6 °F 37.4 °F 29% 30.07 in 10.0 mi Calm Calm - N/A   Clear
4:35 PM 68.0 °F 41.0 °F 37% 30.07 in 10.0 mi Calm Calm - N/A   Clear
4:55 PM 64.4 °F 42.8 °F 45% 30.07 in 10.0 mi Calm Calm - N/A   Clear
5:15 PM 60.8 °F 44.6 °F 55% 30.07 in 10.0 mi Calm Calm - N/A   Clear
5:35 PM 57.2 °F 46.4 °F 67% 30.08 in 10.0 mi Calm Calm - N/A   Clear
5:55 PM 53.6 °F 46.4 °F 77% 30.08 in 10.0 mi Calm Calm - N/A   Clear
6:15 PM 51.8 °F 44.6 °F 76% 30.08 in 10.0 mi Calm Calm - N/A   Clear
6:35 PM 51.8 °F 44.6 °F 76% 30.09 in 10.0 mi Calm Calm - N/A   Clear
6:55 PM 50.0 °F 44.6 °F 82% 30.10 in 10.0 mi Calm Calm - N/A   Clear
7:15 PM 48.2 °F 42.8 °F 82% 30.10 in 10.0 mi Calm Calm - N/A   Clear
7:35 PM 46.4 °F 42.8 °F 87% 30.10 in 10.0 mi Calm Calm - N/A   Clear
7:55 PM 46.4 °F 42.8 °F 87% 30.10 in 10.0 mi Calm Calm - N/A   Clear
8:15 PM 44.6 °F 42.8 °F 93% 30.10 in 10.0 mi Calm Calm - N/A   Clear
8:35 PM 44.6 °F 42.8 °F 93% 30.10 in 10.0 mi Calm Calm - N/A   Clear
8:55 PM 42.8 °F 42.8 °F 100% 30.11 in 10.0 mi Calm Calm - N/A   Clear
9:15 PM 42.8 °F 41.0 °F 93% 30.11 in 10.0 mi Calm Calm - N/A   Clear
9:35 PM 42.8 °F 41.0 °F 93% 30.11 in 10.0 mi Calm Calm - N/A   Clear
9:55 PM 41.0 °F 41.0 °F 100% 30.12 in 10.0 mi Calm Calm - N/A   Clear
10:15 PM 41.0 °F 41.0 °F 100% 30.11 in 10.0 mi Calm Calm - N/A   Clear
10:35 PM 41.0 °F 41.0 °F 100% 30.11 in 10.0 mi Calm Calm - N/A   Clear
10:55 PM 41.0 °F 41.0 °F 100% 30.12 in 10.0 mi Calm Calm - N/A   Clear
11:15 PM 41.0 °F 41.0 °F 100% 30.11 in 10.0 mi Calm Calm - N/A   Clear
11:35 PM 39.2 °F 39.2 °F 100% 30.12 in 10.0 mi Calm Calm - N/A   Clear
11:55 PM 39.2 °F 39.2 °F 100% 30.11 in 10.0 mi Calm Calm - N/A   Clear